createdAt,value
2024-02-10T00:00:17.768Z,21.40
2024-02-10T00:02:46.046Z,20.80
2024-02-10T00:05:15.088Z,19.50
2024-02-10T00:07:47.616Z,25.25
2024-02-10T00:10:15.958Z,21.00
2024-02-10T00:12:44.097Z,20.20
2024-02-10T00:15:14.449Z,19.80
2024-02-10T00:17:42.712Z,20.00
2024-02-10T00:20:14.764Z,19.00
2024-02-10T00:22:43.255Z,24.00
2024-02-10T00:25:11.408Z,24.40
2024-02-10T00:27:41.032Z,19.00
2024-02-10T00:30:09.934Z,25.50
2024-02-10T00:32:39.874Z,19.00
2024-02-10T00:35:08.696Z,20.00
2024-02-10T00:37:36.858Z,22.80
2024-02-10T00:40:05.665Z,22.50
2024-02-10T00:42:33.768Z,23.20
2024-02-10T00:45:01.862Z,21.50
2024-02-10T00:47:30.570Z,27.40
2024-02-10T00:50:01.580Z,24.00
2024-02-10T00:52:29.895Z,25.00
2024-02-10T00:54:58.215Z,21.40
2024-02-10T00:57:30.403Z,23.75
2024-02-10T00:59:58.916Z,20.80
2024-02-10T01:02:27.017Z,21.40
2024-02-10T01:04:56.515Z,19.25
2024-02-10T01:07:26.362Z,18.40
2024-02-10T01:09:54.574Z,25.00
2024-02-10T01:12:22.677Z,20.00
2024-02-10T01:14:52.159Z,24.00
2024-02-10T01:17:20.350Z,19.00
2024-02-10T01:19:51.296Z,26.00
2024-02-10T01:22:23.740Z,20.00
2024-02-10T01:24:56.143Z,20.40
2024-02-10T01:27:26.589Z,19.00
2024-02-10T01:29:56.320Z,20.00
2024-02-10T01:32:24.933Z,23.00
2024-02-10T01:34:55.183Z,21.50
2024-02-10T01:37:23.831Z,21.20
2024-02-10T01:39:55.299Z,18.25
2024-02-10T01:42:38.636Z,20.00
2024-02-10T01:45:09.159Z,20.00
2024-02-10T01:47:39.166Z,22.00
2024-02-10T01:50:08.095Z,21.75
2024-02-10T01:52:37.936Z,25.20
2024-02-10T01:55:08.240Z,24.20
2024-02-10T01:57:36.649Z,18.00
2024-02-10T02:00:07.180Z,19.00
2024-02-10T02:02:35.490Z,19.80
2024-02-10T02:05:04.883Z,19.80
2024-02-10T02:07:33.360Z,24.40
2024-02-10T02:10:02.189Z,18.25
2024-02-10T02:12:35.493Z,16.00
2024-02-10T02:15:03.560Z,21.60
2024-02-10T02:17:37.418Z,22.00
2024-02-10T02:20:07.810Z,22.80
2024-02-10T02:22:35.922Z,20.00
2024-02-10T02:25:06.053Z,18.00
2024-02-10T02:27:34.123Z,20.50
2024-02-10T02:30:02.971Z,21.00
2024-02-10T02:32:35.658Z,18.00
2024-02-10T02:35:10.268Z,18.00
2024-02-10T02:37:38.698Z,29.50
2024-02-10T02:40:09.528Z,17.00
2024-02-10T02:42:37.734Z,20.40
2024-02-10T02:45:08.034Z,23.00
2024-02-10T02:47:37.605Z,19.67
2024-02-10T02:50:09.700Z,21.00
2024-02-10T02:52:37.942Z,19.00
2024-02-10T02:55:12.262Z,17.20
2024-02-10T02:57:40.920Z,20.20
2024-02-10T03:00:10.196Z,22.80
2024-02-10T03:02:42.685Z,18.00
2024-02-10T03:05:12.227Z,22.80
2024-02-10T03:07:41.678Z,26.00
2024-02-10T03:10:11.625Z,19.00
2024-02-10T03:12:39.695Z,20.60
2024-02-10T03:15:08.367Z,19.50
2024-02-10T03:17:36.499Z,24.00
2024-02-10T03:20:06.742Z,20.00
2024-02-10T03:22:34.997Z,20.00
2024-02-10T03:25:03.093Z,18.00
2024-02-10T03:27:32.525Z,22.50
2024-02-10T03:30:01.626Z,20.25
2024-02-10T03:32:34.041Z,21.40
2024-02-10T03:35:02.709Z,21.00
2024-02-10T03:37:30.981Z,18.00
2024-02-10T03:39:59.634Z,19.60
2024-02-10T03:42:27.773Z,22.00
2024-02-10T03:44:57.193Z,21.20
2024-02-10T03:47:27.014Z,19.00
2024-02-10T03:49:55.539Z,20.00
2024-02-10T03:52:27.123Z,24.00
2024-02-10T03:54:55.418Z,21.20
2024-02-10T03:57:23.847Z,23.20
2024-02-10T03:59:51.943Z,21.00
2024-02-10T04:02:21.352Z,24.00
2024-02-10T04:04:52.142Z,20.00
2024-02-10T04:07:21.991Z,20.60
2024-02-10T04:09:50.184Z,27.00
2024-02-10T04:12:18.278Z,21.25
2024-02-10T04:14:46.486Z,27.75
2024-02-10T04:17:14.570Z,23.00
2024-02-10T04:19:44.090Z,19.60
2024-02-10T04:22:12.421Z,19.00
2024-02-10T04:24:40.524Z,18.80
2024-02-10T04:27:08.624Z,18.60
2024-02-10T04:29:37.448Z,20.00
2024-02-10T04:32:07.705Z,19.00
2024-02-10T04:34:35.840Z,18.00
2024-02-10T04:37:06.660Z,24.75
2024-02-10T04:39:36.260Z,19.33
2024-02-10T04:42:06.436Z,24.80
2024-02-10T04:44:34.512Z,20.00
2024-02-10T04:47:02.712Z,20.75
2024-02-10T04:49:31.049Z,16.00
2024-02-10T04:52:00.296Z,21.00
2024-02-10T04:54:30.108Z,22.80
2024-02-10T04:57:00.203Z,22.60
2024-02-10T04:59:28.458Z,20.00
2024-02-10T05:01:57.292Z,20.60
2024-02-10T05:04:25.591Z,20.00
2024-02-10T05:06:53.733Z,21.20
2024-02-10T05:09:22.055Z,18.75
2024-02-10T05:11:51.546Z,24.50
2024-02-10T05:14:19.802Z,20.00
2024-02-10T05:16:47.939Z,26.50
2024-02-10T05:19:17.824Z,20.20
2024-02-10T05:21:46.037Z,27.60
2024-02-10T05:24:15.347Z,21.00
2024-02-10T05:26:43.954Z,21.00
2024-02-10T05:29:15.732Z,30.40
2024-02-10T05:31:44.216Z,21.20
2024-02-10T05:34:17.026Z,26.75
2024-02-10T05:36:45.212Z,26.80
2024-02-10T05:39:17.888Z,21.50
2024-02-10T05:41:47.402Z,21.50
2024-02-10T05:44:17.406Z,19.80
2024-02-10T05:46:45.938Z,25.40
2024-02-10T05:49:14.168Z,21.00
2024-02-10T05:51:42.276Z,20.20
2024-02-10T05:54:10.870Z,22.40
2024-02-10T05:56:41.362Z,17.20
2024-02-10T05:59:09.484Z,20.50
2024-02-10T06:01:38.960Z,21.50
2024-02-10T06:04:10.640Z,20.00
2024-02-10T06:06:42.323Z,25.40
2024-02-10T06:09:10.578Z,20.80
2024-02-10T06:11:38.682Z,17.20
2024-02-10T06:14:09.016Z,21.40
2024-02-10T06:16:41.712Z,18.00
2024-02-10T06:19:10.070Z,21.60
2024-02-10T06:21:38.368Z,24.00
2024-02-10T06:24:06.882Z,17.50
2024-02-10T06:26:38.621Z,20.00
2024-02-10T06:29:08.989Z,22.00
2024-02-10T06:31:39.573Z,23.80
2024-02-10T06:34:10.029Z,26.40
2024-02-10T06:36:38.227Z,26.75
2024-02-10T06:39:06.333Z,20.80
2024-02-10T06:41:35.864Z,20.60
2024-02-10T06:44:08.492Z,17.40
2024-02-10T06:46:37.932Z,22.50
2024-02-10T06:49:08.351Z,23.00
2024-02-10T06:51:36.491Z,23.67
2024-02-10T06:54:04.791Z,16.00
2024-02-10T06:56:33.499Z,25.25
2024-02-10T06:59:03.839Z,21.50
2024-02-10T07:01:34.043Z,25.40
2024-02-10T07:04:03.683Z,22.00
2024-02-10T07:06:32.881Z,21.00
2024-02-10T07:09:02.564Z,22.33
2024-02-10T07:11:30.633Z,21.60
2024-02-10T07:13:58.776Z,17.80
2024-02-10T07:16:26.999Z,20.00
2024-02-10T07:18:55.251Z,18.20
2024-02-10T07:21:24.723Z,26.20
2024-02-10T07:23:52.837Z,19.50
2024-02-10T07:26:21.835Z,15.00
2024-02-10T07:28:55.075Z,19.20
2024-02-10T07:31:23.703Z,18.20
2024-02-10T07:33:51.859Z,20.25
2024-02-10T07:36:20.258Z,17.75
2024-02-10T07:38:49.785Z,18.00
2024-02-10T07:41:17.891Z,24.00
2024-02-10T07:43:45.984Z,16.00
2024-02-10T07:46:18.232Z,22.75
2024-02-10T07:48:47.092Z,20.50
2024-02-10T07:51:15.329Z,16.80
2024-02-10T07:53:46.571Z,15.00
2024-02-10T07:56:16.083Z,14.00
2024-02-10T07:58:44.203Z,17.00
2024-02-10T08:01:13.055Z,16.25
2024-02-10T08:03:42.697Z,16.00
2024-02-10T08:06:10.864Z,19.25
2024-02-10T08:08:38.981Z,17.20
2024-02-10T08:11:07.097Z,20.25
2024-02-10T08:13:36.578Z,16.00
2024-02-10T08:16:06.153Z,14.20
2024-02-10T08:18:34.510Z,24.20
2024-02-10T08:21:02.638Z,17.00
2024-02-10T08:23:30.755Z,16.60
2024-02-10T08:26:00.021Z,14.00
2024-02-10T08:28:28.432Z,16.00
2024-02-10T08:30:59.010Z,16.75
2024-02-10T08:33:32.131Z,13.20
2024-02-10T08:36:00.491Z,15.00
2024-02-10T08:38:30.418Z,16.00
2024-02-10T08:40:58.686Z,17.40
2024-02-10T08:43:26.904Z,15.50
2024-02-10T08:45:55.043Z,16.67
2024-02-10T08:48:24.546Z,16.60
2024-02-10T08:50:52.719Z,21.00
2024-02-10T08:53:20.815Z,11.00
2024-02-10T08:55:49.120Z,17.00
2024-02-10T08:58:17.628Z,15.60
2024-02-10T09:00:47.163Z,16.00
2024-02-10T09:03:15.960Z,15.75
2024-02-10T09:05:47.103Z,19.75
2024-02-10T09:08:15.367Z,18.25
2024-02-10T09:10:43.715Z,14.00
2024-02-10T09:13:13.787Z,15.40
2024-02-10T09:15:41.930Z,14.20
2024-02-10T09:18:10.128Z,15.50
2024-02-10T09:20:38.327Z,18.00
2024-02-10T09:23:07.851Z,15.00
2024-02-10T09:25:38.662Z,12.50
2024-02-10T09:28:07.434Z,16.00
2024-02-10T09:30:37.079Z,15.00
2024-02-10T09:33:08.876Z,16.00
2024-02-10T09:35:41.447Z,18.25
2024-02-10T09:38:14.910Z,19.25
2024-02-10T09:40:44.122Z,11.00
2024-02-10T09:43:12.356Z,14.80
2024-02-10T09:45:43.344Z,16.00
2024-02-10T09:48:11.768Z,18.00
2024-02-10T09:50:39.976Z,14.00
2024-02-10T09:53:08.206Z,18.00
2024-02-10T09:55:37.757Z,17.40
2024-02-10T09:58:08.078Z,17.00
2024-02-10T10:00:39.498Z,16.00
2024-02-10T10:03:07.900Z,15.00
2024-02-10T10:05:44.646Z,17.50
2024-02-10T10:08:13.182Z,13.20
2024-02-10T10:10:42.697Z,17.75
2024-02-10T10:13:11.004Z,17.60
2024-02-10T10:15:39.757Z,14.00
2024-02-10T10:18:15.672Z,17.40
2024-02-10T10:20:47.578Z,15.20
2024-02-10T10:23:16.621Z,16.20
2024-02-10T10:25:47.458Z,15.75
2024-02-10T10:28:17.543Z,14.00
2024-02-10T10:30:47.035Z,19.80
2024-02-10T10:33:15.339Z,14.60
2024-02-10T10:35:46.285Z,17.00
2024-02-10T10:38:14.633Z,14.00
2024-02-10T10:40:42.811Z,14.75
2024-02-10T10:43:16.461Z,15.00
2024-02-10T10:45:45.001Z,13.00
2024-02-10T10:48:13.231Z,14.25
2024-02-10T10:50:41.452Z,15.00
2024-02-10T10:53:10.816Z,13.80
2024-02-10T10:55:43.458Z,12.40
2024-02-10T10:58:14.062Z,15.00
2024-02-10T11:00:43.900Z,11.20
2024-02-10T11:03:12.087Z,13.00
2024-02-10T11:05:42.231Z,13.75
2024-02-10T11:08:11.543Z,11.40
2024-02-10T11:10:40.436Z,12.00
2024-02-10T11:13:11.521Z,12.80
2024-02-10T11:15:42.892Z,15.00
2024-02-10T11:18:18.655Z,12.75
2024-02-10T11:20:46.954Z,14.40
2024-02-10T11:23:15.885Z,11.60
2024-02-10T11:25:44.950Z,13.00
2024-02-10T11:28:22.026Z,12.60
2024-02-10T11:30:51.852Z,14.00
2024-02-10T11:33:21.161Z,12.80
2024-02-10T11:35:49.481Z,14.00
2024-02-10T11:38:17.627Z,15.50
2024-02-10T11:40:45.884Z,12.00
2024-02-10T11:43:15.380Z,14.00
2024-02-10T11:45:44.222Z,12.75
2024-02-10T11:48:14.657Z,11.80
2024-02-10T11:50:59.338Z,14.75
2024-02-10T11:53:32.818Z,17.25
2024-02-10T11:56:08.442Z,21.00
2024-02-10T11:58:38.142Z,16.60
2024-02-10T12:01:06.575Z,17.00
2024-02-10T12:03:36.230Z,21.50
2024-02-10T12:06:04.672Z,19.25
2024-02-10T12:08:34.427Z,19.25
2024-02-10T12:11:02.648Z,15.00
2024-02-10T12:13:30.872Z,16.20
2024-02-10T12:16:02.865Z,16.80
2024-02-10T12:18:31.640Z,18.00
2024-02-10T12:21:01.389Z,14.50
2024-02-10T12:23:31.149Z,14.50
2024-02-10T12:26:01.154Z,17.00
2024-02-10T12:28:29.491Z,14.50
2024-02-10T12:30:57.674Z,16.50
2024-02-10T12:33:25.941Z,14.50
2024-02-10T12:35:56.475Z,13.00
2024-02-10T12:38:27.495Z,19.80
2024-02-10T12:40:55.804Z,16.00
2024-02-10T12:43:25.618Z,15.00
2024-02-10T12:45:54.120Z,13.80
2024-02-10T12:48:22.319Z,14.40
2024-02-10T12:50:51.736Z,20.00
2024-02-10T12:53:20.025Z,16.75
2024-02-10T12:55:49.590Z,13.40
2024-02-10T12:58:21.493Z,15.00
2024-02-10T13:00:49.900Z,14.75
2024-02-10T13:03:21.197Z,15.00
2024-02-10T13:05:51.219Z,15.75
2024-02-10T13:08:20.144Z,12.80
2024-02-10T13:10:49.643Z,15.00
2024-02-10T13:13:19.170Z,20.20
2024-02-10T13:15:48.037Z,14.00
2024-02-10T13:18:24.173Z,16.00
2024-02-10T13:20:55.065Z,13.50
2024-02-10T13:23:23.342Z,21.00
2024-02-10T13:25:52.844Z,16.00
2024-02-10T13:28:21.039Z,16.00
2024-02-10T13:30:49.152Z,14.00
2024-02-10T13:33:17.404Z,15.80
2024-02-10T13:35:45.746Z,14.00
2024-02-10T13:38:31.646Z,16.00
2024-02-10T13:41:18.925Z,16.00
2024-02-10T13:44:04.602Z,15.00
2024-02-10T13:46:50.564Z,14.40
2024-02-10T13:49:36.408Z,15.00
2024-02-10T13:52:22.639Z,14.75
2024-02-10T13:55:08.454Z,17.00
2024-02-10T13:57:55.197Z,16.20
2024-02-10T14:00:31.219Z,21.80
2024-02-10T14:03:06.304Z,16.00
2024-02-10T14:05:52.288Z,15.60
2024-02-10T14:08:49.598Z,12.00
2024-02-10T14:11:33.781Z,16.00
2024-02-10T14:14:04.732Z,14.00
2024-02-10T14:16:34.826Z,17.75
2024-02-10T14:19:07.197Z,14.50
2024-02-10T14:21:39.555Z,15.20
2024-02-10T14:24:12.224Z,18.00
2024-02-10T14:26:54.053Z,20.50
2024-02-10T14:29:34.177Z,16.00
2024-02-10T14:32:11.093Z,17.60
2024-02-10T14:34:59.728Z,18.25
2024-02-10T14:37:32.523Z,16.00
2024-02-10T14:40:01.479Z,16.00
2024-02-10T14:42:29.933Z,16.00
2024-02-10T14:44:59.338Z,17.25
2024-02-10T14:47:29.777Z,16.00
2024-02-10T14:49:58.176Z,17.60
2024-02-10T14:52:26.383Z,16.00
2024-02-10T14:54:57.536Z,16.00
2024-02-10T14:57:25.862Z,16.00
2024-02-10T14:59:55.311Z,14.60
2024-02-10T15:02:27.562Z,17.60
2024-02-10T15:04:55.743Z,17.50
2024-02-10T15:07:25.637Z,22.20
2024-02-10T15:09:53.873Z,18.80
2024-02-10T15:12:22.555Z,17.40
2024-02-10T15:14:51.408Z,19.00
2024-02-10T15:17:20.770Z,22.00
2024-02-10T15:19:50.290Z,20.00
2024-02-10T15:22:20.543Z,22.00
2024-02-10T15:24:49.105Z,16.40
2024-02-10T15:27:17.205Z,23.00
2024-02-10T15:29:47.739Z,21.00
2024-02-10T15:32:16.156Z,18.00
2024-02-10T15:34:55.022Z,20.20
2024-02-10T15:37:30.042Z,19.40
2024-02-10T15:39:58.355Z,17.00
2024-02-10T15:42:28.357Z,15.00
2024-02-10T15:44:56.658Z,17.00
2024-02-10T15:47:24.847Z,17.00
2024-02-10T15:49:56.955Z,15.50
2024-02-10T15:52:26.801Z,16.40
2024-02-10T15:54:56.306Z,14.40
2024-02-10T15:57:25.504Z,19.80
2024-02-10T15:59:53.700Z,28.00
2024-02-10T16:02:21.846Z,21.00
2024-02-10T16:04:50.608Z,27.00
2024-02-10T16:07:19.474Z,18.60
2024-02-10T16:09:48.846Z,20.50
2024-02-10T16:12:19.170Z,16.00
2024-02-10T16:14:47.290Z,17.20
2024-02-10T16:17:16.177Z,20.00
2024-02-10T16:19:50.349Z,19.40
2024-02-10T16:22:18.966Z,24.40
2024-02-10T16:24:50.223Z,23.00
2024-02-10T16:27:23.350Z,25.80
2024-02-10T16:29:52.738Z,19.00
2024-02-10T16:32:20.831Z,25.00
2024-02-10T16:34:51.861Z,24.00
2024-02-10T16:37:21.152Z,20.60
2024-02-10T16:39:51.542Z,24.80
2024-02-10T16:42:21.158Z,18.00
2024-02-10T16:44:49.556Z,20.00
2024-02-10T16:47:17.647Z,20.00
2024-02-10T16:49:46.140Z,21.00
2024-02-10T16:52:14.240Z,20.00
2024-02-10T16:54:42.310Z,28.20
2024-02-10T16:57:11.571Z,27.50
2024-02-10T16:59:40.992Z,24.40
2024-02-10T17:02:09.967Z,19.50
2024-02-10T17:04:39.091Z,22.00
2024-02-10T17:07:08.738Z,20.00
2024-02-10T17:09:37.294Z,26.00
2024-02-10T17:12:05.903Z,26.00
2024-02-10T17:14:34.055Z,21.50
2024-02-10T17:17:03.639Z,21.40
2024-02-10T17:19:32.616Z,20.50
2024-02-10T17:22:00.856Z,22.00
2024-02-10T17:24:29.027Z,25.25
2024-02-10T17:26:57.970Z,32.40
2024-02-10T17:29:26.061Z,29.00
2024-02-10T17:31:54.163Z,22.80
2024-02-10T17:34:23.753Z,24.00
2024-02-10T17:36:51.876Z,29.00
2024-02-10T17:39:21.661Z,24.00
2024-02-10T17:41:49.770Z,26.80
2024-02-10T17:44:17.929Z,24.20
2024-02-10T17:46:50.505Z,24.80
2024-02-10T17:49:21.339Z,25.00
2024-02-10T17:51:50.987Z,25.60
2024-02-10T17:54:21.284Z,24.20
2024-02-10T17:56:49.949Z,27.80
2024-02-10T17:59:19.951Z,19.25
2024-02-10T18:01:48.347Z,27.25
2024-02-10T18:04:16.588Z,27.25
2024-02-10T18:06:45.324Z,23.00
2024-02-10T18:09:14.957Z,24.00
2024-02-10T18:11:46.264Z,22.50
2024-02-10T18:14:17.306Z,24.00
2024-02-10T18:16:46.933Z,26.00
2024-02-10T18:19:15.374Z,24.60
2024-02-10T18:21:45.077Z,24.40
2024-02-10T18:24:17.509Z,23.60
2024-02-10T18:26:47.674Z,19.00
2024-02-10T18:29:17.844Z,27.00
2024-02-10T18:31:46.243Z,32.00
2024-02-10T18:34:14.614Z,28.40
2024-02-10T18:36:44.001Z,32.40
2024-02-10T18:39:13.094Z,26.00
2024-02-10T18:41:42.603Z,21.00
2024-02-10T18:44:11.962Z,23.50
2024-02-10T18:46:40.701Z,27.00
2024-02-10T18:49:08.890Z,27.00
2024-02-10T18:51:37.878Z,21.00
2024-02-10T18:54:05.984Z,33.50
2024-02-10T18:56:36.825Z,23.20
2024-02-10T18:59:06.447Z,24.40
2024-02-10T19:01:37.076Z,36.75
2024-02-10T19:04:07.628Z,23.50
2024-02-10T19:06:36.030Z,26.25
2024-02-10T19:09:05.304Z,23.25
2024-02-10T19:11:34.468Z,24.20
2024-02-10T19:14:08.464Z,26.40
2024-02-10T19:16:39.653Z,24.40
2024-02-10T19:19:07.774Z,22.80
2024-02-10T19:21:35.932Z,25.25
2024-02-10T19:24:04.036Z,23.00
2024-02-10T19:26:32.125Z,26.00
2024-02-10T19:29:00.251Z,26.00
2024-02-10T19:31:28.380Z,26.60
2024-02-10T19:33:57.857Z,31.00
2024-02-10T19:36:26.709Z,27.25
2024-02-10T19:38:55.740Z,29.75
2024-02-10T19:41:23.839Z,24.40
2024-02-10T19:43:52.487Z,30.50
2024-02-10T19:46:21.837Z,27.40
2024-02-10T19:48:50.717Z,26.80
2024-02-10T19:51:22.729Z,24.00
2024-02-10T19:53:54.681Z,22.00
2024-02-10T19:56:23.026Z,27.00
2024-02-10T19:58:52.697Z,26.00
2024-02-10T20:01:22.506Z,31.25
2024-02-10T20:03:53.251Z,25.00
2024-02-10T20:06:23.668Z,29.40
2024-02-10T20:08:53.679Z,26.40
2024-02-10T20:11:24.182Z,27.25
2024-02-10T20:13:53.037Z,29.00
2024-02-10T20:16:21.784Z,30.00
2024-02-10T20:18:50.158Z,21.20
2024-02-10T20:21:18.700Z,24.00
2024-02-10T20:23:48.446Z,30.00
2024-02-10T20:26:16.693Z,29.60
2024-02-10T20:28:45.552Z,27.25
2024-02-10T20:31:17.977Z,26.00
2024-02-10T20:33:54.048Z,30.00
2024-02-10T20:36:23.966Z,28.50
2024-02-10T20:38:53.396Z,29.75
2024-02-10T20:41:21.895Z,25.00
2024-02-10T20:43:49.996Z,27.00
2024-02-10T20:46:18.135Z,27.40
2024-02-10T20:48:46.221Z,25.50
2024-02-10T20:51:16.448Z,26.25
2024-02-10T20:53:44.578Z,25.00
2024-02-10T20:56:16.749Z,24.00
2024-02-10T20:58:45.080Z,32.00
2024-02-10T21:01:13.340Z,34.00
2024-02-10T21:03:41.618Z,27.00
2024-02-10T21:06:09.967Z,26.40
2024-02-10T21:08:39.890Z,26.00
2024-02-10T21:11:08.095Z,25.40
2024-02-10T21:13:38.259Z,25.00
2024-02-10T21:16:09.775Z,29.00
2024-02-10T21:18:38.968Z,27.60
2024-02-10T21:21:07.291Z,25.00
2024-02-10T21:23:36.225Z,24.00
2024-02-10T21:26:04.651Z,24.00
2024-02-10T21:28:34.855Z,26.00
2024-02-10T21:31:05.979Z,24.50
2024-02-10T21:33:34.569Z,26.20
2024-02-10T21:36:02.896Z,25.75
2024-02-10T21:38:30.974Z,25.25
2024-02-10T21:40:59.118Z,21.00
2024-02-10T21:43:27.201Z,18.20
2024-02-10T21:45:55.713Z,24.40
2024-02-10T21:48:25.255Z,26.00
2024-02-10T21:50:54.636Z,21.20
2024-02-10T21:53:22.692Z,19.00
2024-02-10T21:55:51.571Z,30.00
2024-02-10T21:58:19.716Z,29.00
2024-02-10T22:00:49.079Z,28.00
2024-02-10T22:03:17.295Z,22.50
2024-02-10T22:05:49.740Z,29.20
2024-02-10T22:08:18.111Z,24.00
2024-02-10T22:10:46.310Z,29.25
2024-02-10T22:13:14.473Z,24.00
2024-02-10T22:15:42.557Z,26.50
2024-02-10T22:18:14.895Z,29.25
2024-02-10T22:20:45.090Z,23.60
2024-02-10T22:23:15.219Z,28.50
2024-02-10T22:25:46.054Z,32.50
2024-02-10T22:28:14.337Z,29.00
2024-02-10T22:30:42.400Z,27.40
2024-02-10T22:33:10.577Z,26.00
2024-02-10T22:35:39.007Z,24.33
2024-02-10T22:38:08.630Z,28.25
2024-02-10T22:40:41.824Z,28.00
2024-02-10T22:43:11.003Z,28.40
2024-02-10T22:45:39.964Z,24.20
2024-02-10T22:48:11.942Z,27.00
2024-02-10T22:50:43.527Z,27.00
2024-02-10T22:53:14.674Z,25.20
2024-02-10T22:55:45.870Z,26.75
2024-02-10T22:58:15.873Z,33.00
2024-02-10T23:00:56.677Z,28.60
2024-02-10T23:03:28.925Z,26.40
2024-02-10T23:05:57.122Z,28.20
2024-02-10T23:08:27.099Z,31.00
2024-02-10T23:10:56.906Z,29.40
2024-02-10T23:13:27.041Z,32.50
2024-02-10T23:15:56.223Z,27.00
2024-02-10T23:18:27.516Z,31.50
2024-02-10T23:20:56.069Z,33.80
2024-02-10T23:23:29.022Z,30.00
2024-02-10T23:26:00.413Z,35.75
2024-02-10T23:28:28.707Z,34.20
2024-02-10T23:31:01.159Z,32.00
2024-02-10T23:33:33.223Z,33.00
2024-02-10T23:36:05.949Z,32.00
2024-02-10T23:38:35.526Z,34.00
2024-02-10T23:41:05.927Z,30.00
2024-02-10T23:43:36.014Z,34.40
2024-02-10T23:46:07.656Z,32.00
2024-02-10T23:48:36.067Z,34.00
2024-02-10T23:51:06.071Z,32.00
2024-02-10T23:53:35.979Z,34.75
2024-02-10T23:56:09.059Z,31.00
2024-02-10T23:58:38.606Z,34.40
